TimeEDT,TemperatureF,Dew PointF,Humidity,Sea Level PressureIn,VisibilityMPH,Wind Direction,Wind SpeedMPH,Gust SpeedMPH,PrecipitationIn,Events,Conditions,WindDirDegrees,DateUTC
12:53 AM,64.9,60.1,84,30.09,10.0,SE,9.2,-,N/A,,Mostly Cloudy,130,2013-05-19 04:53:00
1:53 AM,64.0,59.0,84,30.07,10.0,SSE,6.9,-,N/A,,Clear,150,2013-05-19 05:53:00
2:53 AM,64.0,57.9,80,30.06,10.0,SE,8.1,-,N/A,,Clear,130,2013-05-19 06:53:00
3:53 AM,64.0,57.9,80,30.06,10.0,Calm,Calm,-,N/A,,Clear,0,2013-05-19 07:53:00
4:53 AM,63.0,57.0,81,30.07,10.0,ESE,5.8,-,N/A,,Clear,120,2013-05-19 08:53:00
6:53 AM,64.0,57.9,80,30.09,10.0,East,3.5,-,N/A,,Overcast,100,2013-05-19 10:53:00
8:53 AM,66.9,59.0,76,30.11,10.0,SE,5.8,-,N/A,,Overcast,130,2013-05-19 12:53:00
9:53 AM,66.9,59.0,76,30.11,10.0,ESE,5.8,-,N/A,,Overcast,120,2013-05-19 13:53:00
10:53 AM,70.0,61.0,73,30.10,10.0,ESE,4.6,-,N/A,,Mostly Cloudy,110,2013-05-19 14:53:00
11:53 AM,73.0,62.1,68,30.10,10.0,SE,6.9,-,N/A,,Overcast,130,2013-05-19 15:53:00
12:53 PM,73.9,62.1,66,30.07,10.0,ESE,6.9,-,N/A,,Overcast,110,2013-05-19 16:53:00
1:53 PM,73.9,62.1,66,30.06,10.0,SE,9.2,-,N/A,,Overcast,140,2013-05-19 17:53:00
3:53 PM,79.0,63.0,58,30.01,10.0,Variable,3.5,-,N/A,,Mostly Cloudy,0,2013-05-19 19:53:00
4:53 PM,80.1,63.0,56,30.00,10.0,Variable,4.6,-,N/A,,Overcast,0,2013-05-19 20:53:00
5:53 PM,70.0,66.0,87,30.01,10.0,ESE,8.1,-,0.07,Rain,Light Rain,110,2013-05-19 21:53:00
6:53 PM,73.0,66.9,81,29.99,10.0,ENE,5.8,-,0.00,,Mostly Cloudy,70,2013-05-19 22:53:00
7:53 PM,72.0,66.0,81,30.00,10.0,ESE,3.5,-,N/A,,Overcast,110,2013-05-19 23:53:00
8:53 PM,70.0,64.0,81,30.02,10.0,ESE,4.6,-,N/A,,Overcast,120,2013-05-20 00:53:00
9:53 PM,66.9,62.1,84,30.04,10.0,East,3.5,-,N/A,,Overcast,100,2013-05-20 01:53:00
10:53 PM,70.0,60.1,71,30.05,10.0,SSE,6.9,-,N/A,,Overcast,150,2013-05-20 02:53:00
11:53 PM,70.0,59.0,68,30.04,10.0,SE,6.9,-,N/A,,Overcast,140,2013-05-20 03:53:00